sensor_id;sensor_type;location;lat;lon;timestamp;P1;durP1;ratioP1;P2;durP2;ratioP2
10851;SDS011;5479;52.046;6.314;2024-02-21T00:00:32;18.77;;;12.13;;
10851;SDS011;5479;52.046;6.314;2024-02-21T00:03:00;19.13;;;11.70;;
10851;SDS011;5479;52.046;6.314;2024-02-21T00:05:28;19.43;;;12.50;;
10851;SDS011;5479;52.046;6.314;2024-02-21T00:07:57;18.17;;;11.63;;
10851;SDS011;5479;52.046;6.314;2024-02-21T00:10:25;20.67;;;12.23;;
10851;SDS011;5479;52.046;6.314;2024-02-21T00:12:53;19.63;;;12.13;;
10851;SDS011;5479;52.046;6.314;2024-02-21T00:15:22;24.17;;;13.23;;
10851;SDS011;5479;52.046;6.314;2024-02-21T00:17:50;19.77;;;12.90;;
10851;SDS011;5479;52.046;6.314;2024-02-21T00:20:18;20.47;;;13.00;;
10851;SDS011;5479;52.046;6.314;2024-02-21T00:22:45;19.30;;;11.90;;
10851;SDS011;5479;52.046;6.314;2024-02-21T00:25:13;18.97;;;11.80;;
10851;SDS011;5479;52.046;6.314;2024-02-21T00:27:41;22.00;;;12.80;;
10851;SDS011;5479;52.046;6.314;2024-02-21T00:30:09;18.70;;;12.63;;
10851;SDS011;5479;52.046;6.314;2024-02-21T00:32:40;18.97;;;11.87;;
10851;SDS011;5479;52.046;6.314;2024-02-21T00:35:08;19.30;;;11.90;;
10851;SDS011;5479;52.046;6.314;2024-02-21T00:37:35;20.77;;;12.23;;
10851;SDS011;5479;52.046;6.314;2024-02-21T00:40:03;19.90;;;12.97;;
10851;SDS011;5479;52.046;6.314;2024-02-21T00:42:32;21.70;;;12.30;;
10851;SDS011;5479;52.046;6.314;2024-02-21T00:45:00;21.73;;;13.13;;
10851;SDS011;5479;52.046;6.314;2024-02-21T00:47:28;22.33;;;12.37;;
10851;SDS011;5479;52.046;6.314;2024-02-21T00:49:57;22.40;;;12.87;;
10851;SDS011;5479;52.046;6.314;2024-02-21T00:52:25;20.30;;;13.17;;
10851;SDS011;5479;52.046;6.314;2024-02-21T00:54:52;22.03;;;13.73;;
10851;SDS011;5479;52.046;6.314;2024-02-21T00:57:20;21.30;;;12.47;;
10851;SDS011;5479;52.046;6.314;2024-02-21T00:59:48;21.23;;;12.23;;
10851;SDS011;5479;52.046;6.314;2024-02-21T01:02:16;18.80;;;11.70;;
10851;SDS011;5479;52.046;6.314;2024-02-21T01:04:43;17.97;;;12.17;;
10851;SDS011;5479;52.046;6.314;2024-02-21T01:07:13;19.27;;;12.40;;
10851;SDS011;5479;52.046;6.314;2024-02-21T01:09:40;21.70;;;13.93;;
10851;SDS011;5479;52.046;6.314;2024-02-21T01:12:08;22.80;;;12.77;;
10851;SDS011;5479;52.046;6.314;2024-02-21T01:14:36;22.87;;;13.03;;
10851;SDS011;5479;52.046;6.314;2024-02-21T01:17:04;20.83;;;13.00;;
10851;SDS011;5479;52.046;6.314;2024-02-21T01:19:31;19.30;;;12.60;;
10851;SDS011;5479;52.046;6.314;2024-02-21T01:21:59;18.30;;;11.53;;
10851;SDS011;5479;52.046;6.314;2024-02-21T01:24:31;21.07;;;12.73;;
10851;SDS011;5479;52.046;6.314;2024-02-21T01:26:58;22.10;;;12.87;;
10851;SDS011;5479;52.046;6.314;2024-02-21T01:29:26;20.20;;;12.97;;
10851;SDS011;5479;52.046;6.314;2024-02-21T01:31:54;20.83;;;12.63;;
10851;SDS011;5479;52.046;6.314;2024-02-21T01:34:21;21.17;;;11.87;;
10851;SDS011;5479;52.046;6.314;2024-02-21T01:36:49;21.20;;;12.97;;
10851;SDS011;5479;52.046;6.314;2024-02-21T01:39:17;20.87;;;12.20;;
10851;SDS011;5479;52.046;6.314;2024-02-21T01:41:46;21.43;;;13.37;;
10851;SDS011;5479;52.046;6.314;2024-02-21T01:44:15;22.63;;;12.23;;
10851;SDS011;5479;52.046;6.314;2024-02-21T01:46:42;23.30;;;11.97;;
10851;SDS011;5479;52.046;6.314;2024-02-21T01:49:10;19.43;;;11.67;;
10851;SDS011;5479;52.046;6.314;2024-02-21T01:51:38;18.57;;;11.53;;
10851;SDS011;5479;52.046;6.314;2024-02-21T01:54:07;18.97;;;11.13;;
10851;SDS011;5479;52.046;6.314;2024-02-21T01:56:35;18.20;;;11.27;;
10851;SDS011;5479;52.046;6.314;2024-02-21T01:59:04;17.73;;;11.37;;
10851;SDS011;5479;52.046;6.314;2024-02-21T02:01:32;17.40;;;11.40;;
10851;SDS011;5479;52.046;6.314;2024-02-21T02:04:02;17.60;;;11.07;;
10851;SDS011;5479;52.046;6.314;2024-02-21T02:06:31;15.77;;;11.77;;
10851;SDS011;5479;52.046;6.314;2024-02-21T02:08:59;17.93;;;11.13;;
10851;SDS011;5479;52.046;6.314;2024-02-21T02:11:28;16.90;;;11.43;;
10851;SDS011;5479;52.046;6.314;2024-02-21T02:13:57;17.63;;;11.47;;
10851;SDS011;5479;52.046;6.314;2024-02-21T02:16:27;19.47;;;11.50;;
10851;SDS011;5479;52.046;6.314;2024-02-21T02:18:56;20.57;;;12.77;;
10851;SDS011;5479;52.046;6.314;2024-02-21T02:21:29;21.67;;;12.73;;
10851;SDS011;5479;52.046;6.314;2024-02-21T02:23:58;17.30;;;11.80;;
10851;SDS011;5479;52.046;6.314;2024-02-21T02:26:26;16.60;;;10.57;;
10851;SDS011;5479;52.046;6.314;2024-02-21T02:28:54;16.17;;;11.63;;
10851;SDS011;5479;52.046;6.314;2024-02-21T02:31:22;18.20;;;10.80;;
10851;SDS011;5479;52.046;6.314;2024-02-21T02:33:52;18.27;;;11.30;;
10851;SDS011;5479;52.046;6.314;2024-02-21T02:36:19;20.83;;;11.37;;
10851;SDS011;5479;52.046;6.314;2024-02-21T02:38:47;16.67;;;11.10;;
10851;SDS011;5479;52.046;6.314;2024-02-21T02:41:16;19.53;;;11.20;;
10851;SDS011;5479;52.046;6.314;2024-02-21T02:43:44;14.47;;;10.97;;
10851;SDS011;5479;52.046;6.314;2024-02-21T02:46:11;15.73;;;10.80;;
10851;SDS011;5479;52.046;6.314;2024-02-21T02:48:39;20.07;;;11.13;;
10851;SDS011;5479;52.046;6.314;2024-02-21T02:51:09;18.57;;;11.80;;
10851;SDS011;5479;52.046;6.314;2024-02-21T02:53:37;22.50;;;11.67;;
10851;SDS011;5479;52.046;6.314;2024-02-21T02:56:05;16.43;;;10.90;;
10851;SDS011;5479;52.046;6.314;2024-02-21T02:58:37;18.30;;;11.27;;
10851;SDS011;5479;52.046;6.314;2024-02-21T03:01:06;16.70;;;11.23;;
10851;SDS011;5479;52.046;6.314;2024-02-21T03:03:34;17.33;;;11.67;;
10851;SDS011;5479;52.046;6.314;2024-02-21T03:06:02;16.00;;;11.57;;
10851;SDS011;5479;52.046;6.314;2024-02-21T03:08:30;18.50;;;11.33;;
10851;SDS011;5479;52.046;6.314;2024-02-21T03:10:59;19.37;;;11.73;;
10851;SDS011;5479;52.046;6.314;2024-02-21T03:13:26;15.07;;;11.07;;
10851;SDS011;5479;52.046;6.314;2024-02-21T03:15:56;16.60;;;11.00;;
10851;SDS011;5479;52.046;6.314;2024-02-21T03:18:23;21.67;;;12.23;;
10851;SDS011;5479;52.046;6.314;2024-02-21T03:20:51;19.43;;;10.43;;
10851;SDS011;5479;52.046;6.314;2024-02-21T03:23:19;15.57;;;10.73;;
10851;SDS011;5479;52.046;6.314;2024-02-21T03:25:47;19.53;;;11.27;;
10851;SDS011;5479;52.046;6.314;2024-02-21T03:28:14;18.87;;;11.70;;
10851;SDS011;5479;52.046;6.314;2024-02-21T03:30:45;18.17;;;11.47;;
10851;SDS011;5479;52.046;6.314;2024-02-21T03:33:16;18.73;;;11.33;;
10851;SDS011;5479;52.046;6.314;2024-02-21T03:35:44;19.53;;;11.03;;
10851;SDS011;5479;52.046;6.314;2024-02-21T03:38:12;16.40;;;10.63;;
10851;SDS011;5479;52.046;6.314;2024-02-21T03:40:39;18.03;;;11.30;;
10851;SDS011;5479;52.046;6.314;2024-02-21T03:43:07;18.97;;;10.80;;
10851;SDS011;5479;52.046;6.314;2024-02-21T03:45:36;15.70;;;10.83;;
10851;SDS011;5479;52.046;6.314;2024-02-21T03:48:08;16.63;;;10.30;;
10851;SDS011;5479;52.046;6.314;2024-02-21T03:50:37;16.20;;;11.00;;
10851;SDS011;5479;52.046;6.314;2024-02-21T03:53:05;16.80;;;10.30;;
10851;SDS011;5479;52.046;6.314;2024-02-21T03:55:32;17.13;;;10.60;;
10851;SDS011;5479;52.046;6.314;2024-02-21T03:58:00;17.50;;;9.70;;
10851;SDS011;5479;52.046;6.314;2024-02-21T04:00:28;16.77;;;9.50;;
10851;SDS011;5479;52.046;6.314;2024-02-21T04:02:55;16.70;;;10.10;;
10851;SDS011;5479;52.046;6.314;2024-02-21T04:05:23;17.03;;;10.03;;
10851;SDS011;5479;52.046;6.314;2024-02-21T04:07:53;17.93;;;9.23;;
10851;SDS011;5479;52.046;6.314;2024-02-21T04:10:22;18.03;;;10.13;;
10851;SDS011;5479;52.046;6.314;2024-02-21T04:12:52;14.70;;;9.50;;
10851;SDS011;5479;52.046;6.314;2024-02-21T04:15:20;14.47;;;9.80;;
10851;SDS011;5479;52.046;6.314;2024-02-21T04:17:49;13.60;;;8.13;;
10851;SDS011;5479;52.046;6.314;2024-02-21T04:20:17;14.20;;;8.70;;
10851;SDS011;5479;52.046;6.314;2024-02-21T04:22:45;16.33;;;9.03;;
10851;SDS011;5479;52.046;6.314;2024-02-21T04:25:14;12.97;;;8.50;;
10851;SDS011;5479;52.046;6.314;2024-02-21T04:27:42;16.53;;;9.00;;
10851;SDS011;5479;52.046;6.314;2024-02-21T04:30:10;17.53;;;8.67;;
10851;SDS011;5479;52.046;6.314;2024-02-21T04:32:38;13.33;;;8.00;;
10851;SDS011;5479;52.046;6.314;2024-02-21T04:35:06;15.77;;;8.60;;
10851;SDS011;5479;52.046;6.314;2024-02-21T04:37:33;14.20;;;8.07;;
10851;SDS011;5479;52.046;6.314;2024-02-21T04:40:03;13.13;;;7.60;;
10851;SDS011;5479;52.046;6.314;2024-02-21T04:42:32;16.30;;;8.73;;
10851;SDS011;5479;52.046;6.314;2024-02-21T04:45:00;15.73;;;9.10;;
10851;SDS011;5479;52.046;6.314;2024-02-21T04:47:28;15.83;;;9.10;;
10851;SDS011;5479;52.046;6.314;2024-02-21T04:49:56;13.87;;;7.77;;
10851;SDS011;5479;52.046;6.314;2024-02-21T04:52:24;12.40;;;7.57;;
10851;SDS011;5479;52.046;6.314;2024-02-21T04:54:53;15.63;;;8.60;;
10851;SDS011;5479;52.046;6.314;2024-02-21T04:57:20;12.77;;;8.03;;
10851;SDS011;5479;52.046;6.314;2024-02-21T04:59:50;12.27;;;8.00;;
10851;SDS011;5479;52.046;6.314;2024-02-21T05:02:18;15.43;;;8.07;;
10851;SDS011;5479;52.046;6.314;2024-02-21T05:04:48;12.80;;;7.80;;
10851;SDS011;5479;52.046;6.314;2024-02-21T05:07:16;13.13;;;8.03;;
10851;SDS011;5479;52.046;6.314;2024-02-21T05:09:45;17.17;;;9.50;;
10851;SDS011;5479;52.046;6.314;2024-02-21T05:12:13;15.90;;;8.50;;
10851;SDS011;5479;52.046;6.314;2024-02-21T05:14:42;14.73;;;7.97;;
10851;SDS011;5479;52.046;6.314;2024-02-21T05:17:11;12.67;;;8.23;;
10851;SDS011;5479;52.046;6.314;2024-02-21T05:19:39;13.80;;;7.97;;
10851;SDS011;5479;52.046;6.314;2024-02-21T05:22:06;14.17;;;8.57;;
10851;SDS011;5479;52.046;6.314;2024-02-21T05:24:35;13.50;;;8.20;;
10851;SDS011;5479;52.046;6.314;2024-02-21T05:27:03;14.27;;;8.20;;
10851;SDS011;5479;52.046;6.314;2024-02-21T05:29:32;12.77;;;8.27;;
10851;SDS011;5479;52.046;6.314;2024-02-21T05:32:00;13.37;;;8.33;;
10851;SDS011;5479;52.046;6.314;2024-02-21T05:34:30;14.50;;;8.33;;
10851;SDS011;5479;52.046;6.314;2024-02-21T05:36:58;13.37;;;8.43;;
10851;SDS011;5479;52.046;6.314;2024-02-21T05:39:27;16.07;;;8.27;;
10851;SDS011;5479;52.046;6.314;2024-02-21T05:41:55;12.47;;;7.90;;
10851;SDS011;5479;52.046;6.314;2024-02-21T05:44:23;15.80;;;8.23;;
10851;SDS011;5479;52.046;6.314;2024-02-21T05:46:52;10.73;;;7.57;;
10851;SDS011;5479;52.046;6.314;2024-02-21T05:49:19;13.23;;;7.67;;
10851;SDS011;5479;52.046;6.314;2024-02-21T05:51:49;13.90;;;7.87;;
10851;SDS011;5479;52.046;6.314;2024-02-21T05:54:18;12.33;;;7.53;;
10851;SDS011;5479;52.046;6.314;2024-02-21T05:56:45;11.77;;;8.00;;
10851;SDS011;5479;52.046;6.314;2024-02-21T05:59:13;12.33;;;7.77;;
10851;SDS011;5479;52.046;6.314;2024-02-21T06:01:41;11.50;;;7.20;;
10851;SDS011;5479;52.046;6.314;2024-02-21T06:04:12;13.80;;;7.50;;
10851;SDS011;5479;52.046;6.314;2024-02-21T06:06:42;10.83;;;7.33;;
10851;SDS011;5479;52.046;6.314;2024-02-21T06:09:11;11.03;;;7.23;;
10851;SDS011;5479;52.046;6.314;2024-02-21T06:11:39;11.10;;;7.00;;
10851;SDS011;5479;52.046;6.314;2024-02-21T06:14:06;12.50;;;7.70;;
10851;SDS011;5479;52.046;6.314;2024-02-21T06:16:34;12.83;;;7.80;;
10851;SDS011;5479;52.046;6.314;2024-02-21T06:19:02;13.47;;;7.40;;
10851;SDS011;5479;52.046;6.314;2024-02-21T06:21:30;13.30;;;7.33;;
10851;SDS011;5479;52.046;6.314;2024-02-21T06:23:58;11.60;;;6.83;;
10851;SDS011;5479;52.046;6.314;2024-02-21T06:26:28;14.13;;;7.40;;
10851;SDS011;5479;52.046;6.314;2024-02-21T06:28:56;13.87;;;6.73;;
10851;SDS011;5479;52.046;6.314;2024-02-21T06:31:26;11.83;;;6.70;;
10851;SDS011;5479;52.046;6.314;2024-02-21T06:33:54;10.33;;;6.40;;
10851;SDS011;5479;52.046;6.314;2024-02-21T06:36:22;10.03;;;6.67;;
10851;SDS011;5479;52.046;6.314;2024-02-21T06:38:50;9.97;;;6.63;;
10851;SDS011;5479;52.046;6.314;2024-02-21T06:41:17;10.53;;;7.10;;
10851;SDS011;5479;52.046;6.314;2024-02-21T06:43:47;9.10;;;5.97;;
10851;SDS011;5479;52.046;6.314;2024-02-21T06:49:01;13.13;;;7.23;;
10851;SDS011;5479;52.046;6.314;2024-02-21T06:51:30;13.33;;;6.93;;
10851;SDS011;5479;52.046;6.314;2024-02-21T06:53:57;11.03;;;7.07;;
10851;SDS011;5479;52.046;6.314;2024-02-21T06:56:24;11.77;;;6.53;;
10851;SDS011;5479;52.046;6.314;2024-02-21T06:58:56;13.27;;;6.93;;
10851;SDS011;5479;52.046;6.314;2024-02-21T07:01:24;12.13;;;7.47;;
10851;SDS011;5479;52.046;6.314;2024-02-21T07:03:52;12.63;;;8.20;;
10851;SDS011;5479;52.046;6.314;2024-02-21T07:06:20;14.30;;;7.50;;
10851;SDS011;5479;52.046;6.314;2024-02-21T07:08:48;13.97;;;7.87;;
10851;SDS011;5479;52.046;6.314;2024-02-21T07:11:16;12.00;;;7.00;;
10851;SDS011;5479;52.046;6.314;2024-02-21T07:13:43;11.90;;;7.70;;
10851;SDS011;5479;52.046;6.314;2024-02-21T07:16:12;13.57;;;7.67;;
10851;SDS011;5479;52.046;6.314;2024-02-21T07:18:40;14.50;;;7.87;;
10851;SDS011;5479;52.046;6.314;2024-02-21T07:21:08;16.73;;;8.40;;
10851;SDS011;5479;52.046;6.314;2024-02-21T07:23:35;14.90;;;7.90;;
10851;SDS011;5479;52.046;6.314;2024-02-21T07:26:04;14.23;;;8.70;;
10851;SDS011;5479;52.046;6.314;2024-02-21T07:28:31;14.40;;;7.80;;
10851;SDS011;5479;52.046;6.314;2024-02-21T07:30:59;12.27;;;8.27;;
10851;SDS011;5479;52.046;6.314;2024-02-21T07:33:28;13.40;;;8.00;;
10851;SDS011;5479;52.046;6.314;2024-02-21T07:35:57;14.63;;;7.83;;
10851;SDS011;5479;52.046;6.314;2024-02-21T07:38:23;15.87;;;7.67;;
10851;SDS011;5479;52.046;6.314;2024-02-21T07:40:51;12.90;;;7.67;;
10851;SDS011;5479;52.046;6.314;2024-02-21T07:43:19;14.63;;;7.23;;
10851;SDS011;5479;52.046;6.314;2024-02-21T07:45:48;12.13;;;7.37;;
10851;SDS011;5479;52.046;6.314;2024-02-21T07:48:16;13.17;;;7.70;;
10851;SDS011;5479;52.046;6.314;2024-02-21T07:50:46;13.07;;;7.47;;
10851;SDS011;5479;52.046;6.314;2024-02-21T07:53:14;13.23;;;7.60;;
10851;SDS011;5479;52.046;6.314;2024-02-21T07:55:43;13.70;;;7.73;;
10851;SDS011;5479;52.046;6.314;2024-02-21T07:58:10;11.57;;;7.07;;
10851;SDS011;5479;52.046;6.314;2024-02-21T08:00:38;15.80;;;7.53;;
10851;SDS011;5479;52.046;6.314;2024-02-21T08:03:06;13.13;;;7.23;;
10851;SDS011;5479;52.046;6.314;2024-02-21T08:05:34;11.93;;;6.83;;
10851;SDS011;5479;52.046;6.314;2024-02-21T08:08:04;11.03;;;7.00;;
10851;SDS011;5479;52.046;6.314;2024-02-21T08:10:32;10.80;;;6.50;;
10851;SDS011;5479;52.046;6.314;2024-02-21T08:12:59;10.93;;;6.40;;
10851;SDS011;5479;52.046;6.314;2024-02-21T08:15:27;12.13;;;7.03;;
10851;SDS011;5479;52.046;6.314;2024-02-21T08:17:56;12.40;;;7.07;;
10851;SDS011;5479;52.046;6.314;2024-02-21T08:20:25;10.67;;;6.70;;
10851;SDS011;5479;52.046;6.314;2024-02-21T08:22:56;12.27;;;6.63;;
10851;SDS011;5479;52.046;6.314;2024-02-21T08:25:25;12.27;;;7.23;;
10851;SDS011;5479;52.046;6.314;2024-02-21T08:27:53;11.17;;;6.80;;
10851;SDS011;5479;52.046;6.314;2024-02-21T08:30:22;11.27;;;6.83;;
10851;SDS011;5479;52.046;6.314;2024-02-21T08:32:50;11.47;;;7.17;;
10851;SDS011;5479;52.046;6.314;2024-02-21T08:35:18;11.07;;;6.70;;
10851;SDS011;5479;52.046;6.314;2024-02-21T08:37:46;10.90;;;6.90;;
10851;SDS011;5479;52.046;6.314;2024-02-21T08:40:14;11.67;;;6.70;;
10851;SDS011;5479;52.046;6.314;2024-02-21T08:42:45;11.27;;;7.20;;
10851;SDS011;5479;52.046;6.314;2024-02-21T08:45:13;10.63;;;6.80;;
10851;SDS011;5479;52.046;6.314;2024-02-21T08:47:40;10.47;;;6.80;;
10851;SDS011;5479;52.046;6.314;2024-02-21T08:50:08;11.27;;;6.77;;
10851;SDS011;5479;52.046;6.314;2024-02-21T08:52:37;12.23;;;7.20;;
10851;SDS011;5479;52.046;6.314;2024-02-21T08:55:05;12.57;;;6.87;;
10851;SDS011;5479;52.046;6.314;2024-02-21T08:57:33;11.90;;;7.67;;
10851;SDS011;5479;52.046;6.314;2024-02-21T09:00:05;13.03;;;7.00;;
10851;SDS011;5479;52.046;6.314;2024-02-21T09:02:36;12.07;;;7.40;;
10851;SDS011;5479;52.046;6.314;2024-02-21T09:05:06;13.17;;;7.37;;
10851;SDS011;5479;52.046;6.314;2024-02-21T09:07:34;13.13;;;7.00;;
10851;SDS011;5479;52.046;6.314;2024-02-21T09:10:02;12.30;;;6.73;;
10851;SDS011;5479;52.046;6.314;2024-02-21T09:12:30;14.37;;;7.57;;
10851;SDS011;5479;52.046;6.314;2024-02-21T09:14:57;13.60;;;7.07;;
10851;SDS011;5479;52.046;6.314;2024-02-21T09:17:26;9.77;;;6.40;;
10851;SDS011;5479;52.046;6.314;2024-02-21T09:19:55;12.10;;;7.30;;
10851;SDS011;5479;52.046;6.314;2024-02-21T09:22:25;10.67;;;6.60;;
10851;SDS011;5479;52.046;6.314;2024-02-21T09:24:53;9.67;;;6.47;;
10851;SDS011;5479;52.046;6.314;2024-02-21T09:27:21;12.70;;;7.17;;
10851;SDS011;5479;52.046;6.314;2024-02-21T09:29:48;11.30;;;6.33;;
10851;SDS011;5479;52.046;6.314;2024-02-21T09:32:16;11.67;;;6.53;;
10851;SDS011;5479;52.046;6.314;2024-02-21T09:34:45;8.90;;;5.97;;
10851;SDS011;5479;52.046;6.314;2024-02-21T09:37:13;9.70;;;6.07;;
10851;SDS011;5479;52.046;6.314;2024-02-21T09:39:40;13.13;;;6.93;;
10851;SDS011;5479;52.046;6.314;2024-02-21T09:42:08;10.00;;;6.13;;
10851;SDS011;5479;52.046;6.314;2024-02-21T09:44:38;9.97;;;5.97;;
10851;SDS011;5479;52.046;6.314;2024-02-21T09:47:09;10.40;;;6.03;;
10851;SDS011;5479;52.046;6.314;2024-02-21T09:49:38;11.33;;;7.07;;
10851;SDS011;5479;52.046;6.314;2024-02-21T09:52:09;9.23;;;5.57;;
10851;SDS011;5479;52.046;6.314;2024-02-21T09:54:39;10.13;;;6.10;;
10851;SDS011;5479;52.046;6.314;2024-02-21T09:57:11;8.10;;;5.70;;
10851;SDS011;5479;52.046;6.314;2024-02-21T09:59:41;9.37;;;5.83;;
10851;SDS011;5479;52.046;6.314;2024-02-21T10:02:09;8.90;;;5.97;;
10851;SDS011;5479;52.046;6.314;2024-02-21T10:04:39;9.03;;;5.63;;
10851;SDS011;5479;52.046;6.314;2024-02-21T10:07:08;8.53;;;5.80;;
10851;SDS011;5479;52.046;6.314;2024-02-21T10:09:38;11.03;;;6.20;;
10851;SDS011;5479;52.046;6.314;2024-02-21T10:12:10;9.83;;;5.80;;
10851;SDS011;5479;52.046;6.314;2024-02-21T10:14:38;8.47;;;5.70;;
10851;SDS011;5479;52.046;6.314;2024-02-21T10:17:08;10.30;;;5.60;;
10851;SDS011;5479;52.046;6.314;2024-02-21T10:19:39;10.23;;;6.10;;
10851;SDS011;5479;52.046;6.314;2024-02-21T10:22:10;9.67;;;5.67;;
10851;SDS011;5479;52.046;6.314;2024-02-21T10:24:38;8.80;;;5.70;;
10851;SDS011;5479;52.046;6.314;2024-02-21T10:27:08;8.77;;;5.50;;
10851;SDS011;5479;52.046;6.314;2024-02-21T10:29:37;7.33;;;5.23;;
10851;SDS011;5479;52.046;6.314;2024-02-21T10:32:07;9.07;;;5.63;;
10851;SDS011;5479;52.046;6.314;2024-02-21T10:34:35;9.60;;;5.13;;
10851;SDS011;5479;52.046;6.314;2024-02-21T10:37:03;8.90;;;5.00;;
10851;SDS011;5479;52.046;6.314;2024-02-21T10:39:33;10.00;;;5.43;;
10851;SDS011;5479;52.046;6.314;2024-02-21T10:42:00;7.83;;;5.30;;
10851;SDS011;5479;52.046;6.314;2024-02-21T10:44:30;8.50;;;5.00;;
10851;SDS011;5479;52.046;6.314;2024-02-21T10:46:58;11.80;;;5.20;;
10851;SDS011;5479;52.046;6.314;2024-02-21T10:49:26;8.07;;;4.77;;
10851;SDS011;5479;52.046;6.314;2024-02-21T10:51:55;6.47;;;3.80;;
10851;SDS011;5479;52.046;6.314;2024-02-21T10:54:29;7.80;;;4.23;;
10851;SDS011;5479;52.046;6.314;2024-02-21T10:56:59;7.17;;;3.40;;
10851;SDS011;5479;52.046;6.314;2024-02-21T10:59:28;7.63;;;4.10;;
10851;SDS011;5479;52.046;6.314;2024-02-21T11:01:56;7.33;;;3.93;;
10851;SDS011;5479;52.046;6.314;2024-02-21T11:04:24;7.37;;;3.87;;
10851;SDS011;5479;52.046;6.314;2024-02-21T11:06:53;6.63;;;3.87;;
10851;SDS011;5479;52.046;6.314;2024-02-21T11:09:29;7.10;;;4.37;;
10851;SDS011;5479;52.046;6.314;2024-02-21T11:11:56;9.10;;;4.60;;
10851;SDS011;5479;52.046;6.314;2024-02-21T11:14:27;8.60;;;4.63;;
10851;SDS011;5479;52.046;6.314;2024-02-21T11:16:55;8.47;;;5.00;;
10851;SDS011;5479;52.046;6.314;2024-02-21T11:19:24;10.50;;;5.63;;
10851;SDS011;5479;52.046;6.314;2024-02-21T11:21:53;7.47;;;5.33;;
10851;SDS011;5479;52.046;6.314;2024-02-21T11:24:27;8.83;;;5.63;;
10851;SDS011;5479;52.046;6.314;2024-02-21T11:26:55;8.87;;;5.50;;
10851;SDS011;5479;52.046;6.314;2024-02-21T11:29:23;11.40;;;6.20;;
10851;SDS011;5479;52.046;6.314;2024-02-21T11:31:52;9.67;;;5.80;;
10851;SDS011;5479;52.046;6.314;2024-02-21T11:34:20;8.40;;;5.47;;
10851;SDS011;5479;52.046;6.314;2024-02-21T11:36:48;9.70;;;5.80;;
10851;SDS011;5479;52.046;6.314;2024-02-21T11:39:19;7.40;;;5.30;;
10851;SDS011;5479;52.046;6.314;2024-02-21T11:41:48;8.47;;;5.23;;
10851;SDS011;5479;52.046;6.314;2024-02-21T11:44:15;8.07;;;5.23;;
10851;SDS011;5479;52.046;6.314;2024-02-21T11:46:43;8.37;;;5.13;;
10851;SDS011;5479;52.046;6.314;2024-02-21T11:49:12;8.43;;;5.00;;
10851;SDS011;5479;52.046;6.314;2024-02-21T11:51:40;9.23;;;5.43;;
10851;SDS011;5479;52.046;6.314;2024-02-21T11:54:08;7.87;;;5.30;;
10851;SDS011;5479;52.046;6.314;2024-02-21T11:56:35;8.60;;;5.07;;
10851;SDS011;5479;52.046;6.314;2024-02-21T11:59:03;8.30;;;5.00;;
10851;SDS011;5479;52.046;6.314;2024-02-21T12:01:32;9.57;;;5.53;;
10851;SDS011;5479;52.046;6.314;2024-02-21T12:04:01;8.93;;;5.53;;
10851;SDS011;5479;52.046;6.314;2024-02-21T12:06:32;10.10;;;5.47;;
10851;SDS011;5479;52.046;6.314;2024-02-21T12:08:59;8.37;;;5.13;;
10851;SDS011;5479;52.046;6.314;2024-02-21T12:11:28;10.13;;;5.37;;
10851;SDS011;5479;52.046;6.314;2024-02-21T12:13:59;10.27;;;6.07;;
10851;SDS011;5479;52.046;6.314;2024-02-21T12:16:28;10.17;;;5.97;;
10851;SDS011;5479;52.046;6.314;2024-02-21T12:18:56;10.20;;;5.93;;
10851;SDS011;5479;52.046;6.314;2024-02-21T12:21:24;8.93;;;5.73;;
10851;SDS011;5479;52.046;6.314;2024-02-21T12:23:55;10.93;;;5.67;;
10851;SDS011;5479;52.046;6.314;2024-02-21T12:26:23;12.07;;;5.80;;
10851;SDS011;5479;52.046;6.314;2024-02-21T12:28:51;10.77;;;5.30;;
10851;SDS011;5479;52.046;6.314;2024-02-21T12:31:19;7.57;;;5.03;;
10851;SDS011;5479;52.046;6.314;2024-02-21T12:33:48;11.47;;;5.20;;
10851;SDS011;5479;52.046;6.314;2024-02-21T12:36:15;7.90;;;4.90;;
10851;SDS011;5479;52.046;6.314;2024-02-21T12:38:49;15.30;;;5.47;;
10851;SDS011;5479;52.046;6.314;2024-02-21T12:41:18;11.23;;;5.07;;
10851;SDS011;5479;52.046;6.314;2024-02-21T12:43:46;9.27;;;4.83;;
10851;SDS011;5479;52.046;6.314;2024-02-21T12:46:14;10.03;;;4.63;;
10851;SDS011;5479;52.046;6.314;2024-02-21T12:48:42;8.30;;;4.80;;
10851;SDS011;5479;52.046;6.314;2024-02-21T12:51:09;13.10;;;5.63;;
10851;SDS011;5479;52.046;6.314;2024-02-21T12:53:37;10.13;;;4.83;;
10851;SDS011;5479;52.046;6.314;2024-02-21T12:56:06;12.67;;;6.00;;
10851;SDS011;5479;52.046;6.314;2024-02-21T12:58:35;9.70;;;5.00;;
10851;SDS011;5479;52.046;6.314;2024-02-21T13:01:03;9.10;;;5.03;;
10851;SDS011;5479;52.046;6.314;2024-02-21T13:03:31;9.80;;;4.73;;
10851;SDS011;5479;52.046;6.314;2024-02-21T13:05:58;10.13;;;5.00;;
10851;SDS011;5479;52.046;6.314;2024-02-21T13:08:26;8.80;;;4.97;;
10851;SDS011;5479;52.046;6.314;2024-02-21T13:10:54;10.83;;;5.27;;
10851;SDS011;5479;52.046;6.314;2024-02-21T13:13:21;8.50;;;5.03;;
10851;SDS011;5479;52.046;6.314;2024-02-21T13:15:50;8.63;;;4.63;;
10851;SDS011;5479;52.046;6.314;2024-02-21T13:18:18;10.23;;;4.87;;
10851;SDS011;5479;52.046;6.314;2024-02-21T13:20:47;9.10;;;4.37;;
10851;SDS011;5479;52.046;6.314;2024-02-21T13:23:14;8.40;;;4.70;;
10851;SDS011;5479;52.046;6.314;2024-02-21T13:25:42;9.17;;;4.87;;
10851;SDS011;5479;52.046;6.314;2024-02-21T13:28:12;8.27;;;4.93;;
10851;SDS011;5479;52.046;6.314;2024-02-21T13:30:42;8.93;;;4.70;;
10851;SDS011;5479;52.046;6.314;2024-02-21T13:33:11;8.70;;;5.13;;
10851;SDS011;5479;52.046;6.314;2024-02-21T13:35:39;10.23;;;5.00;;
10851;SDS011;5479;52.046;6.314;2024-02-21T13:38:07;9.10;;;4.87;;
10851;SDS011;5479;52.046;6.314;2024-02-21T13:40:36;9.57;;;5.33;;
10851;SDS011;5479;52.046;6.314;2024-02-21T13:43:04;8.47;;;4.50;;
10851;SDS011;5479;52.046;6.314;2024-02-21T13:45:31;8.93;;;4.80;;
10851;SDS011;5479;52.046;6.314;2024-02-21T13:47:59;10.50;;;5.27;;
10851;SDS011;5479;52.046;6.314;2024-02-21T13:50:30;12.87;;;5.37;;
10851;SDS011;5479;52.046;6.314;2024-02-21T13:52:58;9.67;;;5.23;;
10851;SDS011;5479;52.046;6.314;2024-02-21T13:55:26;8.20;;;4.87;;
10851;SDS011;5479;52.046;6.314;2024-02-21T13:57:53;9.47;;;4.83;;
10851;SDS011;5479;52.046;6.314;2024-02-21T14:00:21;10.03;;;5.00;;
10851;SDS011;5479;52.046;6.314;2024-02-21T14:02:49;8.87;;;4.60;;
10851;SDS011;5479;52.046;6.314;2024-02-21T14:05:16;10.53;;;5.20;;
10851;SDS011;5479;52.046;6.314;2024-02-21T14:07:46;10.90;;;4.67;;
10851;SDS011;5479;52.046;6.314;2024-02-21T14:10:13;9.47;;;4.90;;
10851;SDS011;5479;52.046;6.314;2024-02-21T14:12:41;9.90;;;4.77;;
10851;SDS011;5479;52.046;6.314;2024-02-21T14:15:09;10.57;;;4.73;;
10851;SDS011;5479;52.046;6.314;2024-02-21T14:17:37;8.23;;;4.57;;
10851;SDS011;5479;52.046;6.314;2024-02-21T14:20:06;9.80;;;4.80;;
10851;SDS011;5479;52.046;6.314;2024-02-21T14:22:33;7.33;;;4.40;;
10851;SDS011;5479;52.046;6.314;2024-02-21T14:25:05;10.37;;;5.10;;
10851;SDS011;5479;52.046;6.314;2024-02-21T14:27:33;10.50;;;4.53;;
10851;SDS011;5479;52.046;6.314;2024-02-21T14:30:02;10.23;;;4.97;;
10851;SDS011;5479;52.046;6.314;2024-02-21T14:32:30;9.20;;;4.20;;
10851;SDS011;5479;52.046;6.314;2024-02-21T14:34:58;9.27;;;4.40;;
10851;SDS011;5479;52.046;6.314;2024-02-21T14:37:25;9.03;;;4.50;;
10851;SDS011;5479;52.046;6.314;2024-02-21T14:39:53;9.13;;;5.00;;
10851;SDS011;5479;52.046;6.314;2024-02-21T14:42:22;11.13;;;5.00;;
10851;SDS011;5479;52.046;6.314;2024-02-21T14:44:51;9.20;;;4.57;;
10851;SDS011;5479;52.046;6.314;2024-02-21T14:47:20;9.80;;;4.47;;
10851;SDS011;5479;52.046;6.314;2024-02-21T14:49:48;7.47;;;4.50;;
10851;SDS011;5479;52.046;6.314;2024-02-21T14:52:16;8.47;;;4.30;;
10851;SDS011;5479;52.046;6.314;2024-02-21T14:54:44;8.23;;;4.20;;
10851;SDS011;5479;52.046;6.314;2024-02-21T14:57:15;11.37;;;4.80;;